createdAt,value
2018-04-30T00:00:11.254Z,0.00
2018-04-30T00:01:11.188Z,0.00
2018-04-30T00:02:11.131Z,0.00
2018-04-30T00:03:11.070Z,0.00
2018-04-30T00:04:11.007Z,0.00
2018-04-30T00:05:10.947Z,0.00
2018-04-30T00:06:10.889Z,0.00
2018-04-30T00:07:10.833Z,0.00
2018-04-30T00:08:10.775Z,0.00
2018-04-30T00:09:10.715Z,0.00
2018-04-30T00:10:10.654Z,0.00
2018-04-30T00:11:10.599Z,0.00
2018-04-30T00:12:10.531Z,0.00
2018-04-30T00:13:10.478Z,0.00
2018-04-30T00:14:10.415Z,0.00
2018-04-30T00:15:10.355Z,0.00
2018-04-30T00:16:10.300Z,0.00
2018-04-30T00:17:10.231Z,0.00
2018-04-30T00:18:10.182Z,0.00
2018-04-30T00:19:10.125Z,0.00
2018-04-30T00:20:10.068Z,0.00
2018-04-30T00:21:09.999Z,0.00
2018-04-30T00:22:09.940Z,0.00
2018-04-30T00:23:09.888Z,0.00
2018-04-30T00:24:09.820Z,0.00
2018-04-30T00:25:09.761Z,0.00
2018-04-30T00:26:09.700Z,0.00
2018-04-30T00:27:09.648Z,0.00
2018-04-30T00:28:09.582Z,0.00
2018-04-30T00:29:09.521Z,0.00
2018-04-30T00:30:09.466Z,0.00
2018-04-30T00:31:09.405Z,0.00
2018-04-30T00:32:09.344Z,0.00
2018-04-30T00:33:09.284Z,0.00
2018-04-30T00:34:09.224Z,0.00
2018-04-30T00:35:09.166Z,0.00
2018-04-30T00:36:09.104Z,0.00
2018-04-30T00:37:09.043Z,0.00
2018-04-30T00:38:08.992Z,0.00
2018-04-30T00:39:08.927Z,0.00
2018-04-30T00:40:08.863Z,0.00
2018-04-30T00:41:08.809Z,0.00
2018-04-30T00:42:08.753Z,0.00
2018-04-30T00:43:08.689Z,0.00
2018-04-30T00:44:08.627Z,0.00
2018-04-30T00:45:08.571Z,0.00
2018-04-30T00:46:08.526Z,0.00
2018-04-30T00:47:08.448Z,0.00
2018-04-30T00:48:08.390Z,0.00
2018-04-30T00:49:08.327Z,0.00
2018-04-30T00:50:08.272Z,0.00
2018-04-30T00:51:08.223Z,0.00
2018-04-30T00:52:08.150Z,0.00
2018-04-30T00:53:08.091Z,0.00
2018-04-30T00:54:08.034Z,0.00
2018-04-30T00:55:07.971Z,0.00
2018-04-30T00:56:07.921Z,0.00
2018-04-30T00:57:07.852Z,0.00
2018-04-30T00:58:07.794Z,0.00
2018-04-30T00:59:07.740Z,0.00
2018-04-30T01:00:07.670Z,0.00
2018-04-30T01:01:07.611Z,0.00
2018-04-30T01:02:07.557Z,0.00
2018-04-30T01:03:07.497Z,0.00
2018-04-30T01:04:07.439Z,0.00
2018-04-30T01:05:07.379Z,0.00
2018-04-30T01:06:07.313Z,0.00
2018-04-30T01:07:07.257Z,0.00
2018-04-30T01:08:07.198Z,0.00
2018-04-30T01:09:07.140Z,0.00
2018-04-30T01:10:07.078Z,0.00
2018-04-30T01:11:15.654Z,0.00
2018-04-30T01:13:00.326Z,0.00
2018-04-30T01:14:00.235Z,0.00
2018-04-30T01:15:53.585Z,0.00
2018-04-30T01:17:01.126Z,0.00
2018-04-30T01:18:49.374Z,0.00
2018-04-30T01:19:48.668Z,0.00
2018-04-30T01:21:42.016Z,0.00
2018-04-30T01:22:41.890Z,0.00
2018-04-30T01:24:36.189Z,0.00
2018-04-30T01:25:36.094Z,0.00
2018-04-30T01:27:29.416Z,0.00
2018-04-30T01:28:29.311Z,0.00
2018-04-30T01:30:23.609Z,0.00
2018-04-30T01:31:23.517Z,0.00
2018-04-30T01:33:17.815Z,0.00
2018-04-30T01:34:17.723Z,0.00
2018-04-30T01:36:11.037Z,0.00
2018-04-30T01:37:10.946Z,0.00
2018-04-30T01:39:04.260Z,0.00
2018-04-30T01:40:04.172Z,0.00
2018-04-30T01:41:58.472Z,0.00
2018-04-30T01:42:58.376Z,0.00
2018-04-30T01:44:51.692Z,0.00
2018-04-30T01:45:51.591Z,0.00
2018-04-30T01:46:51.537Z,0.00
2018-04-30T01:47:51.470Z,0.00
2018-04-30T01:48:51.414Z,0.00
2018-04-30T01:49:51.364Z,0.00
2018-04-30T01:50:51.295Z,0.00
2018-04-30T01:51:51.237Z,0.00
2018-04-30T01:52:51.183Z,0.00
2018-04-30T01:53:51.118Z,0.00
2018-04-30T01:54:51.058Z,0.00
2018-04-30T01:55:50.993Z,0.00
2018-04-30T01:56:50.930Z,0.00
2018-04-30T01:57:50.873Z,0.00
2018-04-30T01:58:50.810Z,0.00
2018-04-30T01:59:50.750Z,0.00
2018-04-30T02:00:50.690Z,0.00
2018-04-30T02:01:50.630Z,0.00
2018-04-30T02:02:50.574Z,0.00
2018-04-30T02:03:50.522Z,0.00
2018-04-30T02:04:50.454Z,0.00
2018-04-30T02:05:50.398Z,0.00
2018-04-30T02:06:50.328Z,0.00
2018-04-30T02:07:50.271Z,0.00
2018-04-30T02:08:50.209Z,0.00
2018-04-30T02:09:50.156Z,0.00
2018-04-30T02:10:50.088Z,0.00
2018-04-30T02:11:50.027Z,0.00
2018-04-30T02:12:49.968Z,0.00
2018-04-30T02:13:49.918Z,0.00
2018-04-30T02:14:49.847Z,0.00
2018-04-30T02:15:49.811Z,0.00
2018-04-30T02:16:49.724Z,0.00
2018-04-30T02:17:49.668Z,0.00
2018-04-30T02:18:49.606Z,0.00
2018-04-30T02:19:49.546Z,0.00
2018-04-30T02:20:49.485Z,0.00
2018-04-30T02:21:49.426Z,0.00
2018-04-30T02:22:49.364Z,0.00
2018-04-30T02:23:49.302Z,0.00
2018-04-30T02:24:49.254Z,0.00
2018-04-30T02:25:49.187Z,0.00
2018-04-30T02:26:49.123Z,0.00
2018-04-30T02:27:49.070Z,0.00
2018-04-30T02:28:49.000Z,0.00
2018-04-30T02:29:48.940Z,0.00
2018-04-30T02:30:48.900Z,0.00
2018-04-30T02:31:48.823Z,0.00
2018-04-30T02:32:48.763Z,0.00
2018-04-30T02:33:48.704Z,0.00
2018-04-30T02:34:48.647Z,0.00
2018-04-30T02:35:48.578Z,0.00
2018-04-30T02:36:49.261Z,0.00
2018-04-30T02:37:48.460Z,0.00
2018-04-30T02:38:48.402Z,0.00
2018-04-30T02:39:48.343Z,0.00
2018-04-30T02:40:48.280Z,0.00
2018-04-30T02:41:48.213Z,0.00
2018-04-30T02:42:48.164Z,0.00
2018-04-30T02:43:48.106Z,0.00
2018-04-30T02:44:48.035Z,0.00
2018-04-30T02:45:47.979Z,0.00
2018-04-30T02:46:47.917Z,0.00
2018-04-30T02:47:47.857Z,0.00
2018-04-30T02:48:47.793Z,0.00
2018-04-30T02:49:47.731Z,0.00
2018-04-30T02:50:47.671Z,0.00
2018-04-30T02:51:47.615Z,0.00
2018-04-30T02:52:47.592Z,0.00
2018-04-30T02:53:47.493Z,0.00
2018-04-30T02:54:47.432Z,0.00
2018-04-30T02:55:47.367Z,0.00
2018-04-30T02:56:47.312Z,0.00
2018-04-30T02:57:47.252Z,0.00
2018-04-30T02:58:47.190Z,0.00
2018-04-30T02:59:47.131Z,0.00
2018-04-30T03:00:47.065Z,0.00
2018-04-30T03:01:47.005Z,0.00
2018-04-30T03:02:46.947Z,4.00
2018-04-30T03:03:46.893Z,4.00
2018-04-30T03:04:46.825Z,4.00
2018-04-30T03:05:46.764Z,0.00
2018-04-30T03:06:46.730Z,4.00
2018-04-30T03:07:46.643Z,4.00
2018-04-30T03:08:46.581Z,4.00
2018-04-30T03:09:46.537Z,4.00
2018-04-30T03:10:46.461Z,8.00
2018-04-30T03:11:46.401Z,8.00
2018-04-30T03:12:46.336Z,8.00
2018-04-30T03:13:46.274Z,12.00
2018-04-30T03:14:46.215Z,12.00
2018-04-30T03:15:46.156Z,12.00
2018-04-30T03:16:46.097Z,12.00
2018-04-30T03:17:46.048Z,16.00
2018-04-30T03:18:45.977Z,20.00
2018-04-30T03:19:45.918Z,20.00
2018-04-30T03:20:45.859Z,24.00
2018-04-30T03:21:45.791Z,28.00
2018-04-30T03:22:45.732Z,32.00
2018-04-30T03:23:45.673Z,36.00
2018-04-30T03:24:45.611Z,44.00
2018-04-30T03:25:45.547Z,52.00
2018-04-30T03:26:45.484Z,56.00
2018-04-30T03:27:45.430Z,64.00
2018-04-30T03:28:45.366Z,72.00
2018-04-30T03:29:45.311Z,80.00
2018-04-30T03:30:45.249Z,88.00
2018-04-30T03:31:45.195Z,100.00
2018-04-30T03:32:45.122Z,116.00
2018-04-30T03:33:45.061Z,128.00
2018-04-30T03:34:45.011Z,140.00
2018-04-30T03:35:44.937Z,156.00
2018-04-30T03:36:44.881Z,172.00
2018-04-30T03:37:44.819Z,192.00
2018-04-30T03:38:44.761Z,208.00
2018-04-30T03:39:44.702Z,224.00
2018-04-30T03:40:44.659Z,248.00
2018-04-30T03:41:44.576Z,268.00
2018-04-30T03:42:44.522Z,288.00
2018-04-30T03:43:44.482Z,312.00
2018-04-30T03:44:44.393Z,332.00
2018-04-30T03:45:44.331Z,360.00
2018-04-30T03:46:44.270Z,388.00
2018-04-30T03:47:44.217Z,416.00
2018-04-30T03:48:44.158Z,440.00
2018-04-30T03:49:44.110Z,468.00
2018-04-30T03:50:44.039Z,496.00
2018-04-30T03:51:43.989Z,524.00
2018-04-30T03:52:43.917Z,552.00
2018-04-30T03:53:43.857Z,584.00
2018-04-30T03:54:43.783Z,616.00
2018-04-30T03:55:43.719Z,644.00
2018-04-30T03:56:43.670Z,676.00
2018-04-30T03:57:43.603Z,700.00
2018-04-30T03:58:43.537Z,728.00
2018-04-30T03:59:43.492Z,760.00
2018-04-30T04:00:43.418Z,788.00
2018-04-30T04:01:43.369Z,824.00
2018-04-30T04:02:43.304Z,860.00
2018-04-30T04:03:43.237Z,896.00
2018-04-30T04:04:43.186Z,936.00
2018-04-30T04:05:43.116Z,976.00
2018-04-30T04:06:43.053Z,1012.00
2018-04-30T04:07:42.994Z,1052.00
2018-04-30T04:08:42.940Z,1096.00
2018-04-30T04:09:42.871Z,1136.00
2018-04-30T04:10:42.814Z,1180.00
2018-04-30T04:11:42.754Z,1224.00
2018-04-30T04:12:42.769Z,1268.00
2018-04-30T04:13:42.624Z,1308.00
2018-04-30T04:14:42.570Z,1348.00
2018-04-30T04:15:42.509Z,1392.00
2018-04-30T04:16:42.441Z,1432.00
2018-04-30T04:17:42.390Z,1472.00
2018-04-30T04:18:42.322Z,1512.00
2018-04-30T04:19:42.261Z,1552.00
2018-04-30T04:20:42.213Z,1588.00
2018-04-30T04:21:42.141Z,1628.00
2018-04-30T04:22:42.086Z,1668.00
2018-04-30T04:23:42.021Z,1704.00
2018-04-30T04:24:41.961Z,1744.00
2018-04-30T04:25:41.897Z,1784.00
2018-04-30T04:26:50.550Z,1824.00
2018-04-30T04:28:44.803Z,1900.00
2018-04-30T04:29:43.685Z,1948.00
2018-04-30T04:31:38.020Z,2024.00
2018-04-30T04:32:36.952Z,2056.00
2018-04-30T04:34:32.291Z,2116.00
2018-04-30T04:35:32.159Z,2140.00
2018-04-30T04:37:16.802Z,2184.00
2018-04-30T04:38:16.706Z,2204.00
2018-04-30T04:40:11.627Z,2176.00
2018-04-30T04:41:10.916Z,2116.00
2018-04-30T04:43:05.217Z,2080.00
2018-04-30T04:44:05.121Z,2140.00
2018-04-30T04:45:59.435Z,2356.00
2018-04-30T04:46:59.333Z,2456.00
2018-04-30T04:48:53.627Z,2676.00
2018-04-30T04:49:53.529Z,2608.00
2018-04-30T04:51:48.833Z,2628.00
2018-04-30T04:52:48.725Z,2704.00
2018-04-30T04:54:43.021Z,2760.00
2018-04-30T04:55:42.936Z,2764.00
2018-04-30T04:57:36.245Z,2856.00
2018-04-30T04:58:36.139Z,2920.00
2018-04-30T05:00:30.455Z,3228.00
2018-04-30T05:01:30.344Z,3468.00
2018-04-30T05:02:30.287Z,3744.00
2018-04-30T05:03:30.226Z,4164.00
2018-04-30T05:04:30.161Z,4364.00
2018-04-30T05:05:30.109Z,4316.00
2018-04-30T05:06:30.045Z,4436.00
2018-04-30T05:07:29.990Z,4492.00
2018-04-30T05:08:29.925Z,4456.00
2018-04-30T05:09:29.864Z,4528.00
2018-04-30T05:10:29.802Z,4784.00
2018-04-30T05:11:29.750Z,4816.00
2018-04-30T05:12:29.677Z,4924.00
2018-04-30T05:13:29.618Z,5048.00
2018-04-30T05:14:29.558Z,5124.00
2018-04-30T05:15:29.498Z,5120.00
2018-04-30T05:16:29.438Z,5144.00
2018-04-30T05:17:29.377Z,5120.00
2018-04-30T05:18:29.321Z,4888.00
2018-04-30T05:19:29.259Z,4692.00
2018-04-30T05:20:29.224Z,4280.00
2018-04-30T05:21:29.141Z,4124.00
2018-04-30T05:22:29.072Z,3984.00
2018-04-30T05:23:29.022Z,3916.00
2018-04-30T05:24:28.953Z,3912.00
2018-04-30T05:25:28.891Z,3904.00
2018-04-30T05:26:28.834Z,3892.00
2018-04-30T05:27:28.772Z,3812.00
2018-04-30T05:28:28.713Z,3672.00
2018-04-30T05:29:28.656Z,3536.00
2018-04-30T05:30:28.681Z,3428.00
2018-04-30T05:31:28.530Z,3376.00
2018-04-30T05:32:28.469Z,3440.00
2018-04-30T05:33:28.412Z,3644.00
2018-04-30T05:34:28.362Z,4008.00
2018-04-30T05:35:28.292Z,4352.00
2018-04-30T05:36:28.229Z,4588.00
2018-04-30T05:37:28.166Z,5032.00
2018-04-30T05:38:28.112Z,4844.00
2018-04-30T05:39:28.051Z,4716.00
2018-04-30T05:40:27.987Z,5008.00
2018-04-30T05:41:27.928Z,4868.00
2018-04-30T05:42:27.865Z,4804.00
2018-04-30T05:43:27.803Z,4732.00
2018-04-30T05:44:27.746Z,5076.00
2018-04-30T05:45:27.689Z,5172.00
2018-04-30T05:46:27.630Z,5140.00
2018-04-30T05:47:27.572Z,4508.00
2018-04-30T05:48:27.510Z,4316.00
2018-04-30T05:49:27.448Z,4500.00
2018-04-30T05:50:27.388Z,5308.00
2018-04-30T05:51:27.324Z,5408.00
2018-04-30T05:52:27.263Z,4248.00
2018-04-30T05:53:27.207Z,6672.00
2018-04-30T05:54:27.143Z,6724.00
2018-04-30T05:55:27.097Z,6596.00
2018-04-30T05:56:27.021Z,6080.00
2018-04-30T05:57:26.965Z,5568.00
2018-04-30T05:58:26.906Z,5468.00
2018-04-30T05:59:26.845Z,5456.00
2018-04-30T06:00:26.826Z,5456.00
2018-04-30T06:01:26.722Z,5448.00
2018-04-30T06:02:26.663Z,5436.00
2018-04-30T06:03:26.605Z,5420.00
2018-04-30T06:04:26.560Z,5396.00
2018-04-30T06:05:26.487Z,5380.00
2018-04-30T06:06:26.432Z,5360.00
2018-04-30T06:07:26.370Z,5340.00
2018-04-30T06:08:26.304Z,5324.00
2018-04-30T06:09:26.245Z,5316.00
2018-04-30T06:10:26.191Z,5312.00
2018-04-30T06:11:26.127Z,5320.00
2018-04-30T06:12:26.066Z,5312.00
2018-04-30T06:13:26.009Z,5328.00
2018-04-30T06:14:25.956Z,5344.00
2018-04-30T06:15:25.884Z,5356.00
2018-04-30T06:16:25.841Z,5372.00
2018-04-30T06:17:25.791Z,5388.00
2018-04-30T06:18:25.717Z,5396.00
2018-04-30T06:19:25.660Z,5416.00
2018-04-30T06:20:25.592Z,5428.00
2018-04-30T06:21:25.531Z,5448.00
2018-04-30T06:22:25.474Z,5472.00
2018-04-30T06:23:25.410Z,5484.00
2018-04-30T06:24:25.353Z,5492.00
2018-04-30T06:25:25.296Z,5508.00
2018-04-30T06:26:25.232Z,5508.00
2018-04-30T06:27:25.171Z,5516.00
2018-04-30T06:28:25.117Z,5512.00
2018-04-30T06:29:25.053Z,5512.00
2018-04-30T06:30:25.014Z,5548.00
2018-04-30T06:31:24.937Z,5568.00
2018-04-30T06:32:24.887Z,5608.00
2018-04-30T06:33:24.817Z,5632.00
2018-04-30T06:34:24.759Z,5660.00
2018-04-30T06:35:24.694Z,5688.00
2018-04-30T06:36:24.637Z,5708.00
2018-04-30T06:37:24.581Z,5720.00
2018-04-30T06:38:24.522Z,5708.00
2018-04-30T06:39:24.465Z,5720.00
2018-04-30T06:40:24.400Z,5728.00
2018-04-30T06:41:24.354Z,5760.00
2018-04-30T06:42:24.284Z,5748.00
2018-04-30T06:43:24.226Z,5752.00
2018-04-30T06:44:24.170Z,5792.00
2018-04-30T06:45:24.107Z,5828.00
2018-04-30T06:46:24.048Z,5836.00
2018-04-30T06:47:23.987Z,5860.00
2018-04-30T06:48:23.931Z,5904.00
2018-04-30T06:49:23.869Z,5888.00
2018-04-30T06:50:23.818Z,5852.00
2018-04-30T06:51:23.750Z,5876.00
2018-04-30T06:52:23.698Z,5900.00
2018-04-30T06:53:23.716Z,5924.00
2018-04-30T06:54:23.574Z,5924.00
2018-04-30T06:55:23.516Z,5948.00
2018-04-30T06:56:23.463Z,5960.00
2018-04-30T06:57:23.403Z,5964.00
2018-04-30T06:58:23.338Z,5940.00
2018-04-30T06:59:23.279Z,5876.00
2018-04-30T07:00:23.252Z,5760.00
2018-04-30T07:01:23.161Z,5876.00
2018-04-30T07:02:23.111Z,5932.00
2018-04-30T07:03:23.048Z,5992.00
2018-04-30T07:04:22.989Z,6004.00
2018-04-30T07:05:22.930Z,6056.00
2018-04-30T07:06:22.867Z,6100.00
2018-04-30T07:07:22.812Z,6104.00
2018-04-30T07:08:22.748Z,6140.00
2018-04-30T07:09:22.724Z,6124.00
2018-04-30T07:10:22.643Z,6128.00
2018-04-30T07:11:22.576Z,6144.00
2018-04-30T07:12:22.513Z,6164.00
2018-04-30T07:13:22.459Z,6164.00
2018-04-30T07:14:22.400Z,5908.00
2018-04-30T07:15:22.352Z,5904.00
2018-04-30T07:16:22.282Z,5696.00
2018-04-30T07:17:29.117Z,5664.00
2018-04-30T07:18:22.195Z,5864.00
2018-04-30T07:19:22.108Z,5784.00
2018-04-30T07:20:22.060Z,5980.00
2018-04-30T07:21:21.994Z,5984.00
2018-04-30T07:22:21.937Z,6016.00
2018-04-30T07:23:21.917Z,6004.00
2018-04-30T07:24:21.835Z,6048.00
2018-04-30T07:25:21.758Z,6080.00
2018-04-30T07:26:21.700Z,6096.00
2018-04-30T07:27:21.638Z,6128.00
2018-04-30T07:28:21.603Z,6156.00
2018-04-30T07:29:21.531Z,6128.00
2018-04-30T07:30:21.472Z,6124.00
2018-04-30T07:31:21.407Z,6180.00
2018-04-30T07:32:21.355Z,6192.00
2018-04-30T07:33:21.298Z,6192.00
2018-04-30T07:34:21.246Z,6188.00
2018-04-30T07:35:21.217Z,6188.00
2018-04-30T07:36:21.118Z,6204.00
2018-04-30T07:37:21.068Z,6232.00
2018-04-30T07:38:21.012Z,6252.00
2018-04-30T07:39:20.943Z,6220.00
2018-04-30T07:40:20.880Z,6220.00
2018-04-30T07:41:20.828Z,6236.00
2018-04-30T07:42:20.795Z,6224.00
2018-04-30T07:43:20.713Z,6256.00
2018-04-30T07:44:20.654Z,6292.00
2018-04-30T07:45:20.592Z,6312.00
2018-04-30T07:46:20.567Z,6308.00
2018-04-30T07:47:20.479Z,6328.00
2018-04-30T07:48:20.432Z,6360.00
2018-04-30T07:49:20.453Z,6364.00
2018-04-30T07:50:20.312Z,6384.00
2018-04-30T07:51:20.250Z,6400.00
2018-04-30T07:52:20.220Z,6436.00
2018-04-30T07:53:20.141Z,6444.00
2018-04-30T07:54:20.079Z,6476.00
2018-04-30T07:55:20.020Z,6492.00
2018-04-30T07:56:19.962Z,6504.00
2018-04-30T07:57:19.938Z,6504.00
2018-04-30T07:58:19.852Z,6500.00
2018-04-30T07:59:19.801Z,6484.00
2018-04-30T08:00:19.743Z,6476.00
2018-04-30T08:01:19.678Z,6544.00
2018-04-30T08:02:19.626Z,6528.00
2018-04-30T08:03:19.588Z,6552.00
2018-04-30T08:04:19.506Z,6580.00
2018-04-30T08:05:19.449Z,6616.00
2018-04-30T08:06:19.390Z,6668.00
2018-04-30T08:07:19.327Z,6676.00
2018-04-30T08:08:19.287Z,6696.00
2018-04-30T08:09:19.215Z,6676.00
2018-04-30T08:10:19.178Z,6688.00
2018-04-30T08:11:19.108Z,6700.00
2018-04-30T08:12:19.051Z,6700.00
2018-04-30T08:13:19.000Z,6720.00
2018-04-30T08:14:18.934Z,6700.00
2018-04-30T08:15:18.873Z,6708.00
2018-04-30T08:16:18.820Z,6740.00
2018-04-30T08:17:18.763Z,6724.00
2018-04-30T08:18:18.756Z,6740.00
2018-04-30T08:19:18.643Z,6812.00
2018-04-30T08:20:18.589Z,6840.00
2018-04-30T08:21:18.531Z,6840.00
2018-04-30T08:22:18.500Z,6820.00
2018-04-30T08:23:18.433Z,6800.00
2018-04-30T08:24:18.361Z,6824.00
2018-04-30T08:25:18.317Z,6856.00
2018-04-30T08:26:18.254Z,6880.00
2018-04-30T08:27:18.191Z,6892.00
2018-04-30T08:28:18.221Z,6920.00
2018-04-30T08:29:18.076Z,6916.00
2018-04-30T08:30:18.056Z,6900.00
2018-04-30T08:31:18.005Z,6896.00
2018-04-30T08:32:17.907Z,6960.00
2018-04-30T08:33:17.853Z,7004.00
2018-04-30T08:34:17.801Z,7052.00
2018-04-30T08:35:17.744Z,7096.00
2018-04-30T08:36:17.686Z,7156.00
2018-04-30T08:37:17.624Z,7224.00
2018-04-30T08:38:17.604Z,7312.00
2018-04-30T08:39:17.530Z,7428.00
2018-04-30T08:40:17.458Z,7584.00
2018-04-30T08:41:17.393Z,7708.00
2018-04-30T08:42:17.343Z,7832.00
2018-04-30T08:43:17.281Z,8008.00
2018-04-30T08:44:17.226Z,8276.00
2018-04-30T08:45:17.179Z,8860.00
2018-04-30T08:46:17.117Z,9364.00
2018-04-30T08:47:17.065Z,10396.00
2018-04-30T08:48:17.000Z,11288.00
2018-04-30T08:49:16.944Z,12592.00
2018-04-30T08:50:16.895Z,13904.00
2018-04-30T08:51:16.826Z,14932.00
2018-04-30T08:52:16.772Z,15476.00
2018-04-30T08:53:16.727Z,15808.00
2018-04-30T08:54:16.663Z,16196.00
2018-04-30T08:55:16.606Z,16492.00
2018-04-30T08:56:16.547Z,15876.00
2018-04-30T08:57:16.493Z,15452.00
2018-04-30T08:58:16.435Z,14080.00
2018-04-30T08:59:16.378Z,13784.00
2018-04-30T09:00:16.326Z,14760.00
2018-04-30T09:01:16.284Z,17024.00
2018-04-30T09:02:16.222Z,17824.00
2018-04-30T09:03:16.159Z,18336.00
2018-04-30T09:04:16.099Z,18784.00
2018-04-30T09:05:16.049Z,18976.00
2018-04-30T09:06:15.988Z,18720.00
2018-04-30T09:07:15.935Z,18464.00
2018-04-30T09:08:15.888Z,18272.00
2018-04-30T09:09:15.823Z,18272.00
2018-04-30T09:10:15.767Z,18208.00
2018-04-30T09:11:15.732Z,18272.00
2018-04-30T09:12:15.663Z,18912.00
2018-04-30T09:13:15.603Z,19680.00
2018-04-30T09:14:15.545Z,19712.00
2018-04-30T09:15:15.489Z,19808.00
2018-04-30T09:16:15.438Z,19360.00
2018-04-30T09:17:15.394Z,19200.00
2018-04-30T09:18:15.334Z,19072.00
2018-04-30T09:19:15.298Z,19040.00
2018-04-30T09:20:15.219Z,18560.00
2018-04-30T09:21:15.172Z,17888.00
2018-04-30T09:22:15.125Z,16808.00
2018-04-30T09:23:15.063Z,15368.00
2018-04-30T09:24:15.000Z,14108.00
2018-04-30T09:25:14.966Z,13444.00
2018-04-30T09:26:14.917Z,14216.00
2018-04-30T09:27:14.840Z,14544.00
2018-04-30T09:28:14.841Z,13892.00
2018-04-30T09:29:14.720Z,13248.00
2018-04-30T09:30:14.672Z,12356.00
2018-04-30T09:31:14.609Z,12096.00
2018-04-30T09:32:14.558Z,11908.00
2018-04-30T09:33:14.499Z,11808.00
2018-04-30T09:34:14.446Z,11584.00
2018-04-30T09:35:14.395Z,11936.00
2018-04-30T09:36:14.336Z,12596.00
2018-04-30T09:37:14.300Z,13528.00
2018-04-30T09:38:14.227Z,15076.00
2018-04-30T09:39:14.167Z,14080.00
2018-04-30T09:40:14.123Z,13488.00
2018-04-30T09:41:14.059Z,13944.00
2018-04-30T09:42:13.999Z,12936.00
2018-04-30T09:43:13.942Z,15772.00
2018-04-30T09:44:13.889Z,19840.00
2018-04-30T09:45:13.832Z,20672.00
2018-04-30T09:46:13.779Z,23264.00
2018-04-30T09:47:13.726Z,21440.00
2018-04-30T09:48:22.320Z,17376.00
2018-04-30T09:50:07.037Z,13600.00
2018-04-30T09:51:15.550Z,12920.00
2018-04-30T09:53:01.232Z,19040.00
2018-04-30T09:54:01.156Z,22400.00
2018-04-30T09:55:55.479Z,21888.00
2018-04-30T09:56:55.368Z,19104.00
2018-04-30T09:58:48.679Z,15248.00
2018-04-30T09:59:48.597Z,13908.00
2018-04-30T10:01:43.942Z,14528.00
2018-04-30T10:02:43.817Z,11660.00
2018-04-30T10:04:38.129Z,10316.00
2018-04-30T10:05:38.043Z,14004.00
2018-04-30T10:07:31.355Z,15420.00
2018-04-30T10:08:31.270Z,14792.00
2018-04-30T10:10:24.691Z,13500.00
2018-04-30T10:11:24.524Z,15556.00
2018-04-30T10:13:18.851Z,14832.00
2018-04-30T10:14:18.769Z,13780.00
2018-04-30T10:16:13.093Z,13732.00
2018-04-30T10:17:12.977Z,11228.00
2018-04-30T10:19:07.312Z,11596.00
2018-04-30T10:20:07.207Z,11748.00
2018-04-30T10:22:01.526Z,14600.00
2018-04-30T10:23:01.429Z,18048.00
2018-04-30T10:24:01.377Z,19040.00
2018-04-30T10:25:01.317Z,18688.00
2018-04-30T10:26:01.260Z,22752.00
2018-04-30T10:27:01.202Z,28000.00
2018-04-30T10:28:01.157Z,28032.00
2018-04-30T10:29:01.102Z,27488.00
2018-04-30T10:30:01.042Z,25664.00
2018-04-30T10:31:00.978Z,26848.00
2018-04-30T10:32:00.918Z,29792.00
2018-04-30T10:33:00.880Z,25952.00
2018-04-30T10:34:00.829Z,24544.00
2018-04-30T10:35:00.793Z,24032.00
2018-04-30T10:36:00.733Z,24192.00
2018-04-30T10:37:00.643Z,25696.00
2018-04-30T10:38:00.682Z,25920.00
2018-04-30T10:39:00.545Z,23584.00
2018-04-30T10:40:00.517Z,19840.00
2018-04-30T10:41:00.421Z,19680.00
2018-04-30T10:42:00.373Z,19328.00
2018-04-30T10:43:00.356Z,21472.00
2018-04-30T10:44:00.254Z,23840.00
2018-04-30T10:45:00.197Z,21536.00
2018-04-30T10:46:00.176Z,19552.00
2018-04-30T10:47:00.090Z,20320.00
2018-04-30T10:48:00.045Z,21664.00
2018-04-30T10:48:59.989Z,21440.00
2018-04-30T10:49:59.949Z,21056.00
2018-04-30T10:50:59.865Z,19040.00
2018-04-30T10:51:59.819Z,16672.00
2018-04-30T10:52:59.763Z,14240.00
2018-04-30T10:53:59.702Z,13032.00
2018-04-30T10:54:59.646Z,11672.00
2018-04-30T10:55:59.598Z,11432.00
2018-04-30T10:56:59.539Z,11524.00
2018-04-30T10:57:59.481Z,10180.00
2018-04-30T10:58:59.422Z,8544.00
2018-04-30T10:59:59.390Z,8108.00
2018-04-30T11:00:59.319Z,8744.00
2018-04-30T11:01:59.252Z,8440.00
2018-04-30T11:02:59.226Z,7896.00
2018-04-30T11:03:59.147Z,8116.00
2018-04-30T11:04:59.093Z,8992.00
2018-04-30T11:05:59.043Z,9764.00
2018-04-30T11:06:58.971Z,10772.00
2018-04-30T11:07:58.915Z,11624.00
2018-04-30T11:08:58.861Z,13856.00
2018-04-30T11:09:58.801Z,16020.00
2018-04-30T11:10:58.759Z,16964.00
2018-04-30T11:11:58.691Z,18560.00
2018-04-30T11:12:58.633Z,20544.00
2018-04-30T11:13:58.576Z,22432.00
2018-04-30T11:15:02.099Z,20928.00
2018-04-30T11:15:58.457Z,19360.00
2018-04-30T11:16:58.422Z,20992.00
2018-04-30T11:17:58.357Z,21984.00
2018-04-30T11:18:58.292Z,21504.00
2018-04-30T11:19:58.243Z,18752.00
2018-04-30T11:20:58.184Z,17236.00
2018-04-30T11:21:58.122Z,19200.00
2018-04-30T11:22:58.072Z,16836.00
2018-04-30T11:23:58.013Z,15112.00
2018-04-30T11:24:57.956Z,15172.00
2018-04-30T11:25:57.896Z,14384.00
2018-04-30T11:26:57.840Z,12880.00
2018-04-30T11:27:57.789Z,12336.00
2018-04-30T11:28:57.730Z,12720.00
2018-04-30T11:29:57.682Z,14908.00
2018-04-30T11:30:57.622Z,17632.00
2018-04-30T11:31:57.558Z,20096.00
2018-04-30T11:32:57.508Z,21952.00
2018-04-30T11:33:57.445Z,24608.00
2018-04-30T11:34:57.392Z,26432.00
2018-04-30T11:35:57.327Z,34912.00
2018-04-30T11:36:57.281Z,24992.00
2018-04-30T11:37:57.222Z,21600.00
2018-04-30T11:38:57.169Z,19104.00
2018-04-30T11:39:57.173Z,16860.00
2018-04-30T11:40:57.052Z,15164.00
2018-04-30T11:41:57.003Z,13836.00
2018-04-30T11:42:56.943Z,12804.00
2018-04-30T11:43:56.890Z,12160.00
2018-04-30T11:44:56.830Z,12000.00
2018-04-30T11:45:56.777Z,11768.00
2018-04-30T11:46:56.718Z,11396.00
2018-04-30T11:47:56.657Z,10876.00
2018-04-30T11:48:56.601Z,10152.00
2018-04-30T11:49:56.548Z,9608.00
2018-04-30T11:50:56.496Z,9516.00
2018-04-30T11:51:56.436Z,9824.00
2018-04-30T11:52:56.383Z,10340.00
2018-04-30T11:53:56.320Z,10792.00
2018-04-30T11:54:56.267Z,10916.00
2018-04-30T11:55:56.206Z,10504.00
2018-04-30T11:56:56.155Z,9832.00
2018-04-30T11:57:56.097Z,8932.00
2018-04-30T11:58:56.039Z,7796.00
2018-04-30T11:59:55.985Z,6704.00
2018-04-30T12:00:55.922Z,5920.00
2018-04-30T12:01:55.867Z,5584.00
2018-04-30T12:02:55.815Z,5684.00
2018-04-30T12:03:55.755Z,6236.00
2018-04-30T12:04:55.768Z,7368.00
2018-04-30T12:05:55.640Z,9372.00
2018-04-30T12:06:55.586Z,12856.00
2018-04-30T12:07:55.520Z,19104.00
2018-04-30T12:08:55.465Z,54656.00
2018-04-30T12:09:55.433Z,27616.00
2018-04-30T12:10:55.370Z,36640.00
2018-04-30T12:11:55.294Z,75904.00
2018-04-30T12:12:55.251Z,112416.00
2018-04-30T12:13:55.179Z,106240.00
2018-04-30T12:14:55.128Z,129920.00
2018-04-30T12:15:55.066Z,113152.00
2018-04-30T12:16:55.013Z,71616.00
2018-04-30T12:17:54.980Z,110016.00
2018-04-30T12:18:54.901Z,121120.00
2018-04-30T12:19:54.849Z,43424.00
2018-04-30T12:20:54.787Z,49088.00
2018-04-30T12:21:54.820Z,34272.00
2018-04-30T12:22:54.686Z,32448.00
2018-04-30T12:23:54.631Z,47488.00
2018-04-30T12:24:54.584Z,128384.00
2018-04-30T12:25:54.526Z,110976.00
2018-04-30T12:26:54.470Z,121120.00
2018-04-30T12:27:54.414Z,120096.00
2018-04-30T12:28:54.366Z,24928.00
2018-04-30T12:29:54.317Z,105536.00
2018-04-30T12:30:54.262Z,96064.00
2018-04-30T12:31:54.211Z,95840.00
2018-04-30T12:32:54.159Z,84704.00
2018-04-30T12:33:54.109Z,111392.00
2018-04-30T12:34:54.061Z,110048.00
2018-04-30T12:35:55.642Z,105152.00
2018-04-30T12:36:53.978Z,107936.00
2018-04-30T12:37:53.909Z,109088.00
2018-04-30T12:38:53.856Z,109888.00
2018-04-30T12:39:53.812Z,108832.00
2018-04-30T12:40:53.762Z,103488.00
2018-04-30T12:41:53.714Z,104416.00
2018-04-30T12:42:53.667Z,102208.00
2018-04-30T12:43:53.625Z,109664.00
2018-04-30T12:44:53.566Z,73408.00
2018-04-30T12:45:53.529Z,108416.00
2018-04-30T12:46:53.479Z,92544.00
2018-04-30T12:47:53.429Z,110336.00
2018-04-30T12:48:53.381Z,114048.00